RYR86FV EIDW-LEMH
Flight info
| Callsign | RYR86FV |
|---|---|
| Flight time | 2h 21m |
| Altitude | 37000 |
| Route | PESIT2J PESIT DCT BAKUR DCT GUBJE DCT GISOK DCT TACQI DCT MANIG DCT KORER UM616 TUPAR DCT CNA DCT SECHE DCT AGN DCT TOU DCT LOMRA DCT ROCAN DCT GEANT DCT GIR DCT SALON DCT SULID DCT DIPES N727 SARGO |
| Aircraft | B738/M-SDE2E3FGHIRWXY/LB1 |
Departure
| Time | 2026-05-05 16:13 |
|---|---|
| Airport | Dublin Airport (EIDW) |
Arrival
| Time | 2026-05-05 18:35 |
|---|---|
| Airport | Menorca Airport (LEMH) |
| Time | Latitude | Longitude | Altitude | Speed | Heading |
|---|---|---|---|---|---|
| 2026-05-05 15:20 | 53.43011 | -6.25009 | 210 ft | 0 kts | 5° |
| 2026-05-05 15:58 | 53.43004 | -6.25010 | 210 ft | 2 kts | 2° |
| 2026-05-05 15:58 | 53.42988 | -6.25011 | 219 ft | 2 kts | 5° |
| 2026-05-05 15:59 | 53.42971 | -6.25014 | 213 ft | 2 kts | 5° |
| 2026-05-05 15:59 | 53.42955 | -6.25009 | 210 ft | 2 kts | 295° |
| 2026-05-05 15:59 | 53.42952 | -6.24987 | 219 ft | 1 kts | 277° |
| 2026-05-05 15:59 | 53.42951 | -6.24984 | 219 ft | 0 kts | 277° |
| 2026-05-05 16:05 | 53.42953 | -6.25005 | 219 ft | 4 kts | 275° |
| 2026-05-05 16:05 | 53.42957 | -6.25088 | 214 ft | 10 kts | 275° |
| 2026-05-05 16:05 | 53.42960 | -6.25229 | 210 ft | 14 kts | 260° |
| 2026-05-05 16:06 | 53.42975 | -6.25374 | 210 ft | 15 kts | 334° |
| 2026-05-05 16:06 | 53.43074 | -6.25446 | 213 ft | 15 kts | 336° |
| 2026-05-05 16:06 | 53.43170 | -6.25515 | 210 ft | 15 kts | 336° |
| 2026-05-05 16:06 | 53.43262 | -6.25582 | 216 ft | 14 kts | 336° |
| 2026-05-05 16:07 | 53.43350 | -6.25647 | 215 ft | 14 kts | 340° |
| 2026-05-05 16:07 | 53.43407 | -6.25558 | 210 ft | 13 kts | 93° |
| 2026-05-05 16:07 | 53.43399 | -6.25402 | 214 ft | 14 kts | 95° |
| 2026-05-05 16:07 | 53.43389 | -6.25240 | 215 ft | 14 kts | 95° |
| 2026-05-05 16:08 | 53.43381 | -6.25086 | 214 ft | 13 kts | 95° |
| 2026-05-05 16:08 | 53.43373 | -6.24937 | 215 ft | 13 kts | 95° |
| 2026-05-05 16:08 | 53.43365 | -6.24790 | 216 ft | 13 kts | 95° |
| 2026-05-05 16:08 | 53.43357 | -6.24636 | 213 ft | 13 kts | 90° |
| 2026-05-05 16:09 | 53.43422 | -6.24557 | 211 ft | 13 kts | 4° |
| 2026-05-05 16:09 | 53.43511 | -6.24558 | 216 ft | 13 kts | 335° |
| 2026-05-05 16:09 | 53.43528 | -6.24641 | 216 ft | 2 kts | 273° |
| 2026-05-05 16:09 | 53.43528 | -6.24642 | 216 ft | 0 kts | 273° |
| 2026-05-05 16:11 | 53.43543 | -6.24931 | 211 ft | 58 kts | 276° |
| 2026-05-05 16:12 | 53.43601 | -6.25981 | 214 ft | 120 kts | 275° |
| 2026-05-05 16:12 | 53.43876 | -6.29650 | 693 ft | 174 kts | 287° |
| 2026-05-05 16:13 | 53.46098 | -6.34513 | 2518 ft | 199 kts | 317° |
| 2026-05-05 16:13 | 53.47077 | -6.36297 | 2889 ft | 221 kts | 309° |
| 2026-05-05 16:13 | 53.48028 | -6.38516 | 3170 ft | 246 kts | 306° |
| 2026-05-05 16:14 | 53.50023 | -6.43319 | 4945 ft | 253 kts | 306° |
| 2026-05-05 16:14 | 53.51039 | -6.48937 | 6678 ft | 264 kts | 261° |
| 2026-05-05 16:15 | 53.48949 | -6.53932 | 8253 ft | 281 kts | 208° |
| 2026-05-05 16:15 | 53.45055 | -6.54175 | 9083 ft | 292 kts | 162° |
| 2026-05-05 16:16 | 53.41247 | -6.51749 | 9066 ft | 294 kts | 159° |
| 2026-05-05 16:16 | 53.37469 | -6.49312 | 9066 ft | 289 kts | 160° |
| 2026-05-05 16:17 | 53.33700 | -6.46980 | 9078 ft | 288 kts | 160° |
| 2026-05-05 16:17 | 53.31818 | -6.45827 | 9079 ft | 289 kts | 160° |
| 2026-05-05 16:18 | 53.28069 | -6.43115 | 9920 ft | 297 kts | 155° |
| 2026-05-05 16:18 | 53.26185 | -6.41627 | 10621 ft | 305 kts | 155° |
| 2026-05-05 16:18 | 53.22071 | -6.38389 | 11204 ft | 346 kts | 155° |
| 2026-05-05 16:19 | 53.19858 | -6.36663 | 11891 ft | 352 kts | 155° |
| 2026-05-05 16:19 | 53.17633 | -6.34936 | 12737 ft | 353 kts | 155° |
| 2026-05-05 16:19 | 53.13105 | -6.31439 | 14188 ft | 362 kts | 156° |
| 2026-05-05 16:20 | 53.08493 | -6.27890 | 15517 ft | 370 kts | 156° |
| 2026-05-05 16:20 | 53.03777 | -6.24270 | 16884 ft | 377 kts | 156° |
| 2026-05-05 16:21 | 52.98994 | -6.20607 | 18197 ft | 384 kts | 156° |
| 2026-05-05 16:22 | 52.91615 | -6.14963 | 19954 ft | 394 kts | 156° |
| 2026-05-05 16:22 | 52.86597 | -6.11109 | 21038 ft | 400 kts | 155° |
| 2026-05-05 16:23 | 52.81500 | -6.07202 | 22096 ft | 408 kts | 155° |
| 2026-05-05 16:23 | 52.78916 | -6.05225 | 22671 ft | 409 kts | 155° |
| 2026-05-05 16:23 | 52.73709 | -6.01251 | 23060 ft | 417 kts | 155° |
| 2026-05-05 16:24 | 52.71069 | -5.99240 | 23064 ft | 419 kts | 155° |
| 2026-05-05 16:24 | 52.68422 | -5.97228 | 23057 ft | 418 kts | 155° |
| 2026-05-05 16:24 | 52.63212 | -5.93273 | 23050 ft | 411 kts | 155° |
| 2026-05-05 16:25 | 52.60616 | -5.91306 | 23058 ft | 411 kts | 155° |
| 2026-05-05 16:25 | 52.55404 | -5.87365 | 23063 ft | 412 kts | 155° |
| 2026-05-05 16:25 | 52.52791 | -5.85394 | 23062 ft | 413 kts | 155° |
| 2026-05-05 16:26 | 52.47573 | -5.81462 | 23054 ft | 413 kts | 154° |
| 2026-05-05 16:26 | 52.42345 | -5.77535 | 23059 ft | 412 kts | 154° |
| 2026-05-05 16:27 | 52.39729 | -5.75611 | 23056 ft | 412 kts | 157° |
| 2026-05-05 16:27 | 52.37028 | -5.74119 | 23290 ft | 415 kts | 162° |
| 2026-05-05 16:27 | 52.34247 | -5.72813 | 23899 ft | 415 kts | 163° |
| 2026-05-05 16:27 | 52.31460 | -5.71522 | 24322 ft | 418 kts | 163° |
| 2026-05-05 16:28 | 52.28656 | -5.70184 | 24707 ft | 421 kts | 162° |
| 2026-05-05 16:28 | 52.25833 | -5.68809 | 25162 ft | 423 kts | 162° |
| 2026-05-05 16:28 | 52.23064 | -5.67359 | 25586 ft | 424 kts | 158° |
| 2026-05-05 16:28 | 52.20318 | -5.65560 | 26010 ft | 425 kts | 155° |
| 2026-05-05 16:29 | 52.17592 | -5.63667 | 26424 ft | 427 kts | 155° |
| 2026-05-05 16:29 | 52.14843 | -5.61752 | 26810 ft | 430 kts | 155° |
| 2026-05-05 16:29 | 52.12083 | -5.59857 | 27203 ft | 432 kts | 155° |
| 2026-05-05 16:29 | 52.09297 | -5.57973 | 27589 ft | 435 kts | 156° |
| 2026-05-05 16:30 | 52.06489 | -5.56093 | 27960 ft | 437 kts | 156° |
| 2026-05-05 16:30 | 52.03676 | -5.54197 | 28312 ft | 439 kts | 154° |
| 2026-05-05 16:30 | 52.00892 | -5.52132 | 28674 ft | 441 kts | 152° |
| 2026-05-05 16:30 | 51.98123 | -5.49944 | 29020 ft | 443 kts | 152° |
| 2026-05-05 16:31 | 51.95360 | -5.47716 | 29361 ft | 445 kts | 152° |
| 2026-05-05 16:31 | 51.92579 | -5.45475 | 29687 ft | 447 kts | 152° |
| 2026-05-05 16:31 | 51.89780 | -5.43236 | 30014 ft | 449 kts | 152° |
| 2026-05-05 16:31 | 51.86965 | -5.41005 | 30288 ft | 452 kts | 152° |
| 2026-05-05 16:32 | 51.84167 | -5.38802 | 30546 ft | 453 kts | 152° |
| 2026-05-05 16:32 | 51.81329 | -5.36578 | 30876 ft | 453 kts | 152° |
| 2026-05-05 16:32 | 51.78489 | -5.34359 | 31281 ft | 451 kts | 152° |
| 2026-05-05 16:32 | 51.75667 | -5.32157 | 31671 ft | 449 kts | 152° |
| 2026-05-05 16:33 | 51.72850 | -5.29961 | 32011 ft | 449 kts | 152° |
| 2026-05-05 16:33 | 51.70040 | -5.27773 | 32324 ft | 449 kts | 152° |
| 2026-05-05 16:33 | 51.67223 | -5.25582 | 32677 ft | 448 kts | 153° |
| 2026-05-05 16:33 | 51.64423 | -5.23407 | 33034 ft | 447 kts | 152° |
| 2026-05-05 16:34 | 51.61609 | -5.21223 | 33353 ft | 447 kts | 153° |
| 2026-05-05 16:34 | 51.58842 | -5.19079 | 33662 ft | 446 kts | 153° |
| 2026-05-05 16:34 | 51.56050 | -5.16917 | 33977 ft | 446 kts | 153° |
| 2026-05-05 16:34 | 51.53256 | -5.14759 | 34245 ft | 445 kts | 153° |
| 2026-05-05 16:35 | 51.50517 | -5.12462 | 34471 ft | 445 kts | 147° |
| 2026-05-05 16:35 | 51.48015 | -5.09559 | 34645 ft | 444 kts | 137° |
| 2026-05-05 16:35 | 51.45698 | -5.06285 | 34891 ft | 443 kts | 136° |
| 2026-05-05 16:35 | 51.43409 | -5.02976 | 35146 ft | 442 kts | 136° |
| 2026-05-05 16:36 | 51.41127 | -4.99674 | 35363 ft | 443 kts | 136° |
| 2026-05-05 16:36 | 51.38832 | -4.96379 | 35567 ft | 443 kts | 137° |
| 2026-05-05 16:36 | 51.36531 | -4.93103 | 35808 ft | 442 kts | 137° |
| 2026-05-05 16:36 | 51.34224 | -4.89841 | 36041 ft | 442 kts | 137° |
| 2026-05-05 16:37 | 51.31914 | -4.86593 | 36266 ft | 442 kts | 138° |
| 2026-05-05 16:37 | 51.29605 | -4.83355 | 36472 ft | 442 kts | 138° |
| 2026-05-05 16:37 | 51.27326 | -4.80163 | 36662 ft | 442 kts | 138° |
| 2026-05-05 16:37 | 51.24999 | -4.76908 | 36854 ft | 442 kts | 138° |
| 2026-05-05 16:38 | 51.22687 | -4.73680 | 37020 ft | 444 kts | 139° |
| 2026-05-05 16:38 | 51.20351 | -4.70420 | 37025 ft | 447 kts | 139° |
| 2026-05-05 16:38 | 51.15628 | -4.63843 | 37023 ft | 454 kts | 139° |
| 2026-05-05 16:39 | 51.10879 | -4.57247 | 37009 ft | 457 kts | 139° |
| 2026-05-05 16:39 | 51.06052 | -4.50562 | 36992 ft | 455 kts | 139° |
| 2026-05-05 16:40 | 51.01054 | -4.44643 | 37020 ft | 447 kts | 148° |
| 2026-05-05 16:40 | 50.95773 | -4.39442 | 37010 ft | 448 kts | 148° |
| 2026-05-05 16:41 | 50.90409 | -4.34198 | 37009 ft | 456 kts | 148° |
| 2026-05-05 16:41 | 50.84980 | -4.28839 | 37006 ft | 463 kts | 148° |
| 2026-05-05 16:42 | 50.79535 | -4.23444 | 36985 ft | 465 kts | 148° |
| 2026-05-05 16:42 | 50.74036 | -4.18004 | 36984 ft | 466 kts | 148° |
| 2026-05-05 16:43 | 50.68530 | -4.12573 | 36978 ft | 466 kts | 148° |
| 2026-05-05 16:43 | 50.63026 | -4.07161 | 36980 ft | 466 kts | 148° |
| 2026-05-05 16:44 | 50.57565 | -4.01807 | 36972 ft | 464 kts | 148° |
| 2026-05-05 16:44 | 50.52093 | -3.96457 | 36978 ft | 462 kts | 148° |
| 2026-05-05 16:45 | 50.46623 | -3.91124 | 36969 ft | 461 kts | 148° |
| 2026-05-05 16:45 | 50.41180 | -3.85831 | 36965 ft | 460 kts | 148° |
| 2026-05-05 16:46 | 50.35747 | -3.80562 | 36976 ft | 458 kts | 148° |
| 2026-05-05 16:46 | 50.30361 | -3.75354 | 36964 ft | 458 kts | 148° |
| 2026-05-05 16:47 | 50.24945 | -3.70131 | 36967 ft | 457 kts | 148° |
| 2026-05-05 16:47 | 50.19534 | -3.64926 | 36967 ft | 456 kts | 148° |
| 2026-05-05 16:48 | 50.14128 | -3.59740 | 36980 ft | 455 kts | 148° |
| 2026-05-05 16:48 | 50.08729 | -3.54575 | 36961 ft | 455 kts | 148° |
| 2026-05-05 16:49 | 50.03332 | -3.49425 | 36960 ft | 455 kts | 148° |
| 2026-05-05 16:49 | 49.98841 | -3.45150 | 36974 ft | 455 kts | 148° |
| 2026-05-05 16:50 | 49.93434 | -3.40015 | 36975 ft | 455 kts | 148° |
| 2026-05-05 16:50 | 49.88024 | -3.34890 | 36959 ft | 456 kts | 149° |
| 2026-05-05 16:51 | 49.82605 | -3.29770 | 36962 ft | 456 kts | 149° |
| 2026-05-05 16:51 | 49.76979 | -3.25268 | 36969 ft | 456 kts | 161° |
| 2026-05-05 16:52 | 49.70863 | -3.22853 | 36962 ft | 456 kts | 167° |
| 2026-05-05 16:52 | 49.64674 | -3.20643 | 36959 ft | 456 kts | 167° |
| 2026-05-05 16:53 | 49.58487 | -3.18389 | 36967 ft | 457 kts | 166° |
| 2026-05-05 16:53 | 49.52299 | -3.16094 | 36953 ft | 457 kts | 166° |
| 2026-05-05 16:54 | 49.46110 | -3.13788 | 36955 ft | 457 kts | 166° |
| 2026-05-05 16:54 | 49.39961 | -3.11502 | 36955 ft | 458 kts | 166° |
| 2026-05-05 16:55 | 49.33760 | -3.09204 | 36961 ft | 458 kts | 166° |
| 2026-05-05 16:55 | 49.27559 | -3.06913 | 36969 ft | 458 kts | 166° |
| 2026-05-05 16:56 | 49.21352 | -3.04627 | 36954 ft | 458 kts | 166° |
| 2026-05-05 16:56 | 49.15144 | -3.02345 | 36956 ft | 458 kts | 166° |
| 2026-05-05 16:57 | 49.08976 | -3.00084 | 36958 ft | 459 kts | 166° |
| 2026-05-05 16:57 | 49.02767 | -2.97815 | 36956 ft | 459 kts | 166° |
| 2026-05-05 16:58 | 48.96554 | -2.95549 | 36954 ft | 458 kts | 166° |
| 2026-05-05 16:58 | 48.90340 | -2.93289 | 36958 ft | 458 kts | 166° |
| 2026-05-05 16:59 | 48.84144 | -2.91040 | 36960 ft | 457 kts | 166° |
| 2026-05-05 16:59 | 48.77958 | -2.88802 | 36963 ft | 457 kts | 166° |
| 2026-05-05 17:00 | 48.71820 | -2.86587 | 36965 ft | 456 kts | 166° |
| 2026-05-05 17:00 | 48.65639 | -2.84361 | 36970 ft | 455 kts | 166° |
| 2026-05-05 17:01 | 48.59467 | -2.82145 | 36964 ft | 455 kts | 166° |
| 2026-05-05 17:01 | 48.53295 | -2.79933 | 36969 ft | 455 kts | 166° |
| 2026-05-05 17:02 | 48.47142 | -2.77734 | 36966 ft | 454 kts | 166° |
| 2026-05-05 17:02 | 48.41027 | -2.75555 | 36965 ft | 454 kts | 166° |
| 2026-05-05 17:03 | 48.34877 | -2.73368 | 36967 ft | 454 kts | 166° |
| 2026-05-05 17:03 | 48.28731 | -2.71187 | 36956 ft | 454 kts | 166° |
| 2026-05-05 17:04 | 48.22583 | -2.69012 | 36955 ft | 453 kts | 166° |
| 2026-05-05 17:04 | 48.16436 | -2.66842 | 36949 ft | 453 kts | 166° |
| 2026-05-05 17:05 | 48.10326 | -2.64691 | 36954 ft | 453 kts | 166° |
| 2026-05-05 17:05 | 48.04178 | -2.62531 | 36937 ft | 453 kts | 166° |
| 2026-05-05 17:06 | 47.98029 | -2.60377 | 36938 ft | 454 kts | 166° |
| 2026-05-05 17:06 | 47.91878 | -2.58227 | 36924 ft | 454 kts | 166° |
| 2026-05-05 17:07 | 47.85757 | -2.56092 | 36921 ft | 454 kts | 166° |
| 2026-05-05 17:07 | 47.79612 | -2.53953 | 36918 ft | 454 kts | 166° |
| 2026-05-05 17:08 | 47.73454 | -2.51815 | 36923 ft | 454 kts | 165° |
| 2026-05-05 17:08 | 47.70471 | -2.50294 | 36909 ft | 453 kts | 153° |
| 2026-05-05 17:08 | 47.67752 | -2.47944 | 36930 ft | 453 kts | 144° |
| 2026-05-05 17:09 | 47.65337 | -2.44928 | 36916 ft | 454 kts | 133° |
| 2026-05-05 17:09 | 47.63254 | -2.41415 | 36936 ft | 454 kts | 130° |
| 2026-05-05 17:09 | 47.59176 | -2.34249 | 36922 ft | 454 kts | 130° |
| 2026-05-05 17:10 | 47.55102 | -2.27172 | 36916 ft | 454 kts | 131° |
| 2026-05-05 17:10 | 47.50967 | -2.20104 | 36915 ft | 454 kts | 131° |
| 2026-05-05 17:11 | 47.46819 | -2.13061 | 36914 ft | 454 kts | 131° |
| 2026-05-05 17:11 | 47.42657 | -2.06009 | 36912 ft | 454 kts | 131° |
| 2026-05-05 17:12 | 47.38503 | -1.98981 | 36910 ft | 454 kts | 131° |
| 2026-05-05 17:12 | 47.34346 | -1.91970 | 36912 ft | 454 kts | 131° |
| 2026-05-05 17:13 | 47.30215 | -1.85004 | 36907 ft | 454 kts | 131° |
| 2026-05-05 17:13 | 47.26051 | -1.77991 | 36889 ft | 454 kts | 131° |
| 2026-05-05 17:14 | 47.21886 | -1.70992 | 36888 ft | 454 kts | 131° |
| 2026-05-05 17:14 | 47.17715 | -1.64002 | 36885 ft | 454 kts | 131° |
| 2026-05-05 17:15 | 47.13297 | -1.57366 | 36881 ft | 454 kts | 139° |
| 2026-05-05 17:15 | 47.08570 | -1.51297 | 36882 ft | 454 kts | 139° |
| 2026-05-05 17:16 | 47.03826 | -1.45178 | 36890 ft | 454 kts | 139° |
| 2026-05-05 17:16 | 46.99113 | -1.39008 | 36878 ft | 454 kts | 139° |
| 2026-05-05 17:17 | 46.94393 | -1.32837 | 36884 ft | 454 kts | 139° |
| 2026-05-05 17:17 | 46.89676 | -1.26683 | 36883 ft | 454 kts | 139° |
| 2026-05-05 17:18 | 46.84984 | -1.20575 | 36884 ft | 454 kts | 139° |
| 2026-05-05 17:18 | 46.80258 | -1.14436 | 36889 ft | 455 kts | 139° |
| 2026-05-05 17:19 | 46.75521 | -1.08297 | 36885 ft | 456 kts | 139° |
| 2026-05-05 17:19 | 46.70770 | -1.02154 | 36871 ft | 456 kts | 139° |
| 2026-05-05 17:20 | 46.66019 | -0.96028 | 36877 ft | 456 kts | 139° |
| 2026-05-05 17:20 | 46.61262 | -0.89905 | 36871 ft | 456 kts | 140° |
| 2026-05-05 17:21 | 46.56530 | -0.83827 | 36871 ft | 457 kts | 139° |
| 2026-05-05 17:22 | 46.49390 | -0.74630 | 36874 ft | 457 kts | 140° |
| 2026-05-05 17:22 | 46.44569 | -0.68595 | 36869 ft | 457 kts | 146° |
| 2026-05-05 17:23 | 46.38993 | -0.64321 | 36865 ft | 454 kts | 162° |
| 2026-05-05 17:23 | 46.32961 | -0.61578 | 36881 ft | 454 kts | 164° |
| 2026-05-05 17:24 | 46.26962 | -0.58913 | 36884 ft | 454 kts | 163° |
| 2026-05-05 17:24 | 46.20914 | -0.56171 | 36885 ft | 454 kts | 163° |
| 2026-05-05 17:25 | 46.14875 | -0.53404 | 36889 ft | 455 kts | 163° |
| 2026-05-05 17:25 | 46.08880 | -0.50655 | 36886 ft | 455 kts | 164° |
| 2026-05-05 17:26 | 46.02828 | -0.47890 | 36894 ft | 455 kts | 163° |
| 2026-05-05 17:26 | 45.96788 | -0.45136 | 36893 ft | 455 kts | 163° |
| 2026-05-05 17:27 | 45.90747 | -0.42390 | 36905 ft | 455 kts | 164° |
| 2026-05-05 17:27 | 45.84735 | -0.39662 | 36904 ft | 456 kts | 164° |
| 2026-05-05 17:28 | 45.78682 | -0.36923 | 36914 ft | 456 kts | 163° |
| 2026-05-05 17:28 | 45.72623 | -0.34185 | 36924 ft | 456 kts | 164° |
| 2026-05-05 17:29 | 45.66552 | -0.31438 | 36911 ft | 457 kts | 162° |
| 2026-05-05 17:29 | 45.60758 | -0.27775 | 36913 ft | 458 kts | 155° |
| 2026-05-05 17:30 | 45.55035 | -0.23718 | 36910 ft | 458 kts | 155° |
| 2026-05-05 17:30 | 45.49306 | -0.19685 | 36910 ft | 458 kts | 155° |
| 2026-05-05 17:31 | 45.43614 | -0.15743 | 36915 ft | 458 kts | 156° |
| 2026-05-05 17:31 | 45.37870 | -0.11798 | 36915 ft | 458 kts | 156° |
| 2026-05-05 17:32 | 45.32124 | -0.07865 | 36921 ft | 458 kts | 156° |
| 2026-05-05 17:32 | 45.26371 | -0.03933 | 36914 ft | 458 kts | 156° |
| 2026-05-05 17:33 | 45.20611 | -0.00004 | 36925 ft | 459 kts | 156° |
| 2026-05-05 17:33 | 45.14855 | 0.03913 | 36921 ft | 459 kts | 156° |
| 2026-05-05 17:34 | 45.09094 | 0.07826 | 36920 ft | 459 kts | 156° |
| 2026-05-05 17:34 | 45.03367 | 0.11706 | 36930 ft | 459 kts | 156° |
| 2026-05-05 17:35 | 44.97603 | 0.15603 | 36932 ft | 459 kts | 156° |
| 2026-05-05 17:35 | 44.91828 | 0.19498 | 36930 ft | 459 kts | 156° |
| 2026-05-05 17:36 | 44.86044 | 0.23391 | 36933 ft | 459 kts | 157° |
| 2026-05-05 17:36 | 44.80307 | 0.27243 | 36936 ft | 459 kts | 157° |
| 2026-05-05 17:37 | 44.74532 | 0.31113 | 36938 ft | 459 kts | 157° |
| 2026-05-05 17:37 | 44.69736 | 0.34320 | 36937 ft | 459 kts | 157° |
| 2026-05-05 17:38 | 44.63961 | 0.38174 | 36936 ft | 459 kts | 157° |
| 2026-05-05 17:38 | 44.58188 | 0.42019 | 36937 ft | 459 kts | 157° |
| 2026-05-05 17:39 | 44.52409 | 0.45859 | 36936 ft | 459 kts | 157° |
| 2026-05-05 17:39 | 44.46631 | 0.49691 | 36938 ft | 459 kts | 158° |
| 2026-05-05 17:40 | 44.40851 | 0.53506 | 36937 ft | 459 kts | 158° |
| 2026-05-05 17:40 | 44.35060 | 0.57294 | 36937 ft | 459 kts | 158° |
| 2026-05-05 17:41 | 44.29306 | 0.61049 | 36941 ft | 459 kts | 158° |
| 2026-05-05 17:41 | 44.23510 | 0.64828 | 36938 ft | 459 kts | 158° |
| 2026-05-05 17:42 | 44.17712 | 0.68601 | 36937 ft | 460 kts | 158° |
| 2026-05-05 17:42 | 44.11908 | 0.72371 | 36936 ft | 460 kts | 158° |
| 2026-05-05 17:43 | 44.06108 | 0.76130 | 36942 ft | 460 kts | 158° |
| 2026-05-05 17:43 | 44.00309 | 0.79880 | 36942 ft | 460 kts | 159° |
| 2026-05-05 17:44 | 43.94507 | 0.83624 | 36950 ft | 460 kts | 159° |
| 2026-05-05 17:44 | 43.89085 | 0.88308 | 36955 ft | 468 kts | 142° |
| 2026-05-05 17:45 | 43.84866 | 0.95242 | 36958 ft | 475 kts | 127° |
| 2026-05-05 17:45 | 43.81310 | 1.02993 | 36947 ft | 476 kts | 126° |
| 2026-05-05 17:46 | 43.77735 | 1.10724 | 36961 ft | 476 kts | 127° |
| 2026-05-05 17:46 | 43.74127 | 1.18347 | 36959 ft | 477 kts | 127° |
| 2026-05-05 17:47 | 43.70479 | 1.26007 | 36972 ft | 477 kts | 127° |
| 2026-05-05 17:47 | 43.66736 | 1.33572 | 36967 ft | 475 kts | 131° |
| 2026-05-05 17:48 | 43.62599 | 1.40654 | 36960 ft | 474 kts | 134° |
| 2026-05-05 17:48 | 43.58390 | 1.47667 | 36968 ft | 474 kts | 134° |
| 2026-05-05 17:49 | 43.54220 | 1.54715 | 36963 ft | 474 kts | 133° |
| 2026-05-05 17:49 | 43.50090 | 1.61744 | 36969 ft | 475 kts | 133° |
| 2026-05-05 17:50 | 43.45934 | 1.68806 | 36968 ft | 474 kts | 134° |
| 2026-05-05 17:50 | 43.41773 | 1.75855 | 36975 ft | 474 kts | 134° |
| 2026-05-05 17:51 | 43.37596 | 1.82898 | 36972 ft | 474 kts | 136° |
| 2026-05-05 17:51 | 43.35187 | 1.85913 | 36970 ft | 463 kts | 152° |
| 2026-05-05 17:51 | 43.32366 | 1.87919 | 36983 ft | 452 kts | 165° |
| 2026-05-05 17:51 | 43.29358 | 1.88962 | 36969 ft | 442 kts | 180° |
| 2026-05-05 17:52 | 43.26335 | 1.89216 | 37001 ft | 440 kts | 181° |
| 2026-05-05 17:52 | 43.20216 | 1.89692 | 36979 ft | 441 kts | 181° |
| 2026-05-05 17:53 | 43.14089 | 1.90242 | 36970 ft | 441 kts | 180° |
| 2026-05-05 17:53 | 43.07956 | 1.90827 | 36975 ft | 441 kts | 180° |
| 2026-05-05 17:54 | 43.01823 | 1.91418 | 36977 ft | 441 kts | 181° |
| 2026-05-05 17:54 | 42.95726 | 1.92001 | 36983 ft | 441 kts | 181° |
| 2026-05-05 17:55 | 42.89589 | 1.92587 | 36974 ft | 441 kts | 181° |
| 2026-05-05 17:55 | 42.83469 | 1.93169 | 36968 ft | 441 kts | 181° |
| 2026-05-05 17:56 | 42.77377 | 1.93747 | 36968 ft | 440 kts | 181° |
| 2026-05-05 17:56 | 42.71254 | 1.94397 | 36964 ft | 444 kts | 176° |
| 2026-05-05 17:56 | 42.68262 | 1.95443 | 36973 ft | 453 kts | 165° |
| 2026-05-05 17:57 | 42.65365 | 1.97187 | 36996 ft | 460 kts | 156° |
| 2026-05-05 17:57 | 42.60155 | 2.02459 | 36965 ft | 470 kts | 146° |
| 2026-05-05 17:58 | 42.55182 | 2.08243 | 36948 ft | 469 kts | 146° |
| 2026-05-05 17:58 | 42.50186 | 2.13917 | 36945 ft | 468 kts | 147° |
| 2026-05-05 17:59 | 42.45156 | 2.19530 | 36944 ft | 467 kts | 147° |
| 2026-05-05 17:59 | 42.40174 | 2.25085 | 36940 ft | 467 kts | 147° |
| 2026-05-05 18:00 | 42.35149 | 2.30693 | 36919 ft | 468 kts | 147° |
| 2026-05-05 18:00 | 42.30132 | 2.36288 | 36907 ft | 467 kts | 147° |
| 2026-05-05 18:01 | 42.25115 | 2.41870 | 36904 ft | 467 kts | 148° |
| 2026-05-05 18:01 | 42.20097 | 2.47439 | 36899 ft | 467 kts | 148° |
| 2026-05-05 18:02 | 42.15112 | 2.52958 | 36905 ft | 466 kts | 148° |
| 2026-05-05 18:02 | 42.10123 | 2.58477 | 36882 ft | 455 kts | 148° |
| 2026-05-05 18:03 | 42.05309 | 2.63794 | 36901 ft | 444 kts | 149° |
| 2026-05-05 18:03 | 42.00524 | 2.69050 | 36572 ft | 443 kts | 149° |
| 2026-05-05 18:03 | 41.98161 | 2.71649 | 36280 ft | 436 kts | 149° |
| 2026-05-05 18:04 | 41.95820 | 2.74221 | 35902 ft | 432 kts | 149° |
| 2026-05-05 18:04 | 41.93506 | 2.76760 | 35515 ft | 428 kts | 150° |
| 2026-05-05 18:04 | 41.91179 | 2.79171 | 35318 ft | 416 kts | 153° |
| 2026-05-05 18:04 | 41.88853 | 2.81429 | 34963 ft | 410 kts | 155° |
| 2026-05-05 18:05 | 41.86535 | 2.83617 | 34627 ft | 405 kts | 155° |
| 2026-05-05 18:05 | 41.84233 | 2.85776 | 34263 ft | 402 kts | 156° |
| 2026-05-05 18:05 | 41.81990 | 2.87886 | 33896 ft | 400 kts | 156° |
| 2026-05-05 18:05 | 41.79684 | 2.90066 | 33462 ft | 397 kts | 156° |
| 2026-05-05 18:06 | 41.77438 | 2.92199 | 33056 ft | 393 kts | 156° |
| 2026-05-05 18:06 | 41.75966 | 2.93600 | 32808 ft | 391 kts | 156° |
| 2026-05-05 18:06 | 41.73017 | 2.96408 | 32312 ft | 387 kts | 157° |
| 2026-05-05 18:06 | 41.70835 | 2.98486 | 31937 ft | 383 kts | 157° |
| 2026-05-05 18:07 | 41.68668 | 3.00548 | 31576 ft | 380 kts | 157° |
| 2026-05-05 18:07 | 41.66521 | 3.02589 | 31232 ft | 377 kts | 157° |
| 2026-05-05 18:07 | 41.64395 | 3.04608 | 30876 ft | 374 kts | 158° |
| 2026-05-05 18:07 | 41.62302 | 3.06593 | 30536 ft | 371 kts | 158° |
| 2026-05-05 18:08 | 41.60202 | 3.08582 | 30192 ft | 369 kts | 158° |
| 2026-05-05 18:08 | 41.58113 | 3.10560 | 29836 ft | 366 kts | 158° |
| 2026-05-05 18:08 | 41.56039 | 3.12523 | 29441 ft | 363 kts | 158° |
| 2026-05-05 18:08 | 41.53990 | 3.14463 | 29086 ft | 359 kts | 158° |
| 2026-05-05 18:09 | 41.51958 | 3.16384 | 28734 ft | 355 kts | 158° |
| 2026-05-05 18:09 | 41.49952 | 3.18279 | 28388 ft | 351 kts | 158° |
| 2026-05-05 18:09 | 41.47943 | 3.20068 | 28142 ft | 341 kts | 160° |
| 2026-05-05 18:09 | 41.45967 | 3.21704 | 27803 ft | 337 kts | 161° |
| 2026-05-05 18:10 | 41.43968 | 3.23318 | 27491 ft | 334 kts | 161° |
| 2026-05-05 18:10 | 41.41980 | 3.24917 | 27141 ft | 333 kts | 161° |
| 2026-05-05 18:10 | 41.39982 | 3.26526 | 26813 ft | 339 kts | 161° |
| 2026-05-05 18:10 | 41.37922 | 3.28183 | 26486 ft | 351 kts | 160° |
| 2026-05-05 18:11 | 41.35835 | 3.29877 | 26118 ft | 352 kts | 160° |
| 2026-05-05 18:11 | 41.33752 | 3.31582 | 25745 ft | 350 kts | 160° |
| 2026-05-05 18:11 | 41.31685 | 3.33276 | 25401 ft | 347 kts | 160° |
| 2026-05-05 18:11 | 41.29634 | 3.34955 | 25048 ft | 345 kts | 160° |
| 2026-05-05 18:12 | 41.27595 | 3.36619 | 24705 ft | 343 kts | 160° |
| 2026-05-05 18:12 | 41.25571 | 3.38269 | 24361 ft | 341 kts | 160° |
| 2026-05-05 18:12 | 41.23554 | 3.39911 | 24021 ft | 339 kts | 160° |
| 2026-05-05 18:12 | 41.21544 | 3.41546 | 23678 ft | 338 kts | 160° |
| 2026-05-05 18:13 | 41.19538 | 3.43175 | 23298 ft | 337 kts | 160° |
| 2026-05-05 18:13 | 41.17543 | 3.44798 | 22844 ft | 337 kts | 159° |
| 2026-05-05 18:13 | 41.15562 | 3.46416 | 22383 ft | 338 kts | 159° |
| 2026-05-05 18:13 | 41.13564 | 3.48056 | 22012 ft | 336 kts | 159° |
| 2026-05-05 18:14 | 41.11585 | 3.49679 | 21655 ft | 333 kts | 158° |
| 2026-05-05 18:14 | 41.09616 | 3.51291 | 21311 ft | 331 kts | 158° |
| 2026-05-05 18:14 | 41.07662 | 3.52889 | 20972 ft | 329 kts | 158° |
| 2026-05-05 18:14 | 41.05721 | 3.54473 | 20643 ft | 326 kts | 158° |
| 2026-05-05 18:15 | 41.03789 | 3.56040 | 20302 ft | 325 kts | 158° |
| 2026-05-05 18:15 | 41.01868 | 3.57595 | 19966 ft | 323 kts | 158° |
| 2026-05-05 18:15 | 40.99956 | 3.59140 | 19637 ft | 321 kts | 158° |
| 2026-05-05 18:15 | 40.98055 | 3.60676 | 19313 ft | 320 kts | 157° |
| 2026-05-05 18:16 | 40.96161 | 3.62206 | 18991 ft | 318 kts | 157° |
| 2026-05-05 18:16 | 40.94277 | 3.63726 | 18670 ft | 317 kts | 157° |
| 2026-05-05 18:16 | 40.92397 | 3.65243 | 18353 ft | 315 kts | 156° |
| 2026-05-05 18:16 | 40.90529 | 3.66749 | 18007 ft | 314 kts | 156° |
| 2026-05-05 18:17 | 40.88667 | 3.68251 | 17649 ft | 313 kts | 156° |
| 2026-05-05 18:17 | 40.86812 | 3.69745 | 17316 ft | 311 kts | 156° |
| 2026-05-05 18:17 | 40.84991 | 3.71211 | 16992 ft | 309 kts | 156° |
| 2026-05-05 18:17 | 40.83141 | 3.72700 | 16671 ft | 306 kts | 156° |
| 2026-05-05 18:18 | 40.81346 | 3.74143 | 16365 ft | 304 kts | 156° |
| 2026-05-05 18:18 | 40.79543 | 3.75593 | 16055 ft | 302 kts | 156° |
| 2026-05-05 18:18 | 40.77753 | 3.77030 | 15732 ft | 301 kts | 156° |
| 2026-05-05 18:18 | 40.75973 | 3.78458 | 15430 ft | 299 kts | 156° |
| 2026-05-05 18:19 | 40.74195 | 3.79883 | 15128 ft | 297 kts | 155° |
| 2026-05-05 18:19 | 40.72433 | 3.81296 | 14827 ft | 295 kts | 155° |
| 2026-05-05 18:19 | 40.70683 | 3.82697 | 14522 ft | 294 kts | 155° |
| 2026-05-05 18:19 | 40.68941 | 3.84091 | 14226 ft | 292 kts | 155° |
| 2026-05-05 18:20 | 40.67205 | 3.85480 | 13930 ft | 291 kts | 155° |
| 2026-05-05 18:20 | 40.66060 | 3.86395 | 13730 ft | 290 kts | 155° |
| 2026-05-05 18:20 | 40.63756 | 3.88236 | 13289 ft | 289 kts | 155° |
| 2026-05-05 18:20 | 40.62044 | 3.89603 | 12969 ft | 287 kts | 155° |
| 2026-05-05 18:21 | 40.60340 | 3.90963 | 12656 ft | 285 kts | 155° |
| 2026-05-05 18:21 | 40.58651 | 3.92311 | 12362 ft | 283 kts | 155° |
| 2026-05-05 18:21 | 40.56967 | 3.93654 | 12063 ft | 282 kts | 154° |
| 2026-05-05 18:21 | 40.55297 | 3.94985 | 11771 ft | 280 kts | 154° |
| 2026-05-05 18:22 | 40.53635 | 3.96308 | 11477 ft | 279 kts | 154° |
| 2026-05-05 18:22 | 40.52000 | 3.97608 | 11183 ft | 277 kts | 154° |
| 2026-05-05 18:22 | 40.50351 | 3.98912 | 10892 ft | 276 kts | 156° |
| 2026-05-05 18:22 | 40.48603 | 3.99873 | 10574 ft | 270 kts | 167° |
| 2026-05-05 18:23 | 40.46798 | 4.00531 | 10276 ft | 269 kts | 170° |
| 2026-05-05 18:23 | 40.44987 | 4.01130 | 10035 ft | 266 kts | 170° |
| 2026-05-05 18:23 | 40.43216 | 4.01715 | 9879 ft | 260 kts | 170° |
| 2026-05-05 18:23 | 40.41464 | 4.02303 | 9572 ft | 260 kts | 170° |
| 2026-05-05 18:24 | 40.39734 | 4.02894 | 9270 ft | 253 kts | 169° |
| 2026-05-05 18:24 | 40.38047 | 4.03477 | 9012 ft | 249 kts | 169° |
| 2026-05-05 18:24 | 40.36941 | 4.03862 | 8820 ft | 248 kts | 169° |
| 2026-05-05 18:24 | 40.34721 | 4.04637 | 8483 ft | 246 kts | 169° |
| 2026-05-05 18:25 | 40.33630 | 4.05020 | 8310 ft | 245 kts | 169° |
| 2026-05-05 18:25 | 40.32517 | 4.05411 | 8133 ft | 244 kts | 169° |
| 2026-05-05 18:25 | 40.30349 | 4.06174 | 7790 ft | 243 kts | 169° |
| 2026-05-05 18:25 | 40.28716 | 4.06749 | 7530 ft | 242 kts | 169° |
| 2026-05-05 18:26 | 40.27090 | 4.07323 | 7277 ft | 241 kts | 169° |
| 2026-05-05 18:26 | 40.25471 | 4.07894 | 7017 ft | 241 kts | 169° |
| 2026-05-05 18:26 | 40.23852 | 4.08465 | 6757 ft | 241 kts | 169° |
| 2026-05-05 18:26 | 40.22232 | 4.09036 | 6497 ft | 240 kts | 169° |
| 2026-05-05 18:27 | 40.20618 | 4.09605 | 6246 ft | 240 kts | 169° |
| 2026-05-05 18:27 | 40.19005 | 4.10174 | 5994 ft | 239 kts | 169° |
| 2026-05-05 18:27 | 40.17405 | 4.10738 | 5750 ft | 237 kts | 168° |
| 2026-05-05 18:27 | 40.15830 | 4.11293 | 5509 ft | 237 kts | 169° |
| 2026-05-05 18:28 | 40.12657 | 4.12409 | 5010 ft | 236 kts | 169° |
| 2026-05-05 18:28 | 40.11073 | 4.12965 | 4761 ft | 236 kts | 168° |
| 2026-05-05 18:28 | 40.09531 | 4.13708 | 4493 ft | 239 kts | 150° |
| 2026-05-05 18:29 | 40.08342 | 4.15229 | 4248 ft | 243 kts | 123° |
| 2026-05-05 18:29 | 40.07818 | 4.17297 | 4078 ft | 239 kts | 95° |
| 2026-05-05 18:29 | 40.07898 | 4.19424 | 3973 ft | 231 kts | 83° |
| 2026-05-05 18:29 | 40.08038 | 4.21480 | 3855 ft | 223 kts | 88° |
| 2026-05-05 18:30 | 40.07901 | 4.23446 | 3733 ft | 214 kts | 114° |
| 2026-05-05 18:30 | 40.06985 | 4.24796 | 3674 ft | 194 kts | 162° |
| 2026-05-05 18:30 | 40.05690 | 4.25076 | 3669 ft | 191 kts | 178° |
| 2026-05-05 18:30 | 40.04348 | 4.25224 | 3544 ft | 193 kts | 184° |
| 2026-05-05 18:31 | 40.03011 | 4.25183 | 3413 ft | 192 kts | 186° |
| 2026-05-05 18:31 | 40.01682 | 4.25025 | 3176 ft | 191 kts | 191° |
| 2026-05-05 18:31 | 40.00373 | 4.24779 | 2933 ft | 189 kts | 193° |
| 2026-05-05 18:31 | 39.99078 | 4.24513 | 2690 ft | 187 kts | 193° |
| 2026-05-05 18:32 | 39.97827 | 4.24252 | 2440 ft | 182 kts | 192° |
| 2026-05-05 18:32 | 39.96582 | 4.23996 | 2197 ft | 179 kts | 193° |
| 2026-05-05 18:32 | 39.95363 | 4.23745 | 1964 ft | 175 kts | 192° |
| 2026-05-05 18:32 | 39.94182 | 4.23501 | 1728 ft | 168 kts | 191° |
| 2026-05-05 18:33 | 39.93057 | 4.23268 | 1495 ft | 160 kts | 192° |
| 2026-05-05 18:33 | 39.92016 | 4.23056 | 1301 ft | 145 kts | 191° |
| 2026-05-05 18:33 | 39.91053 | 4.22857 | 1118 ft | 141 kts | 192° |
| 2026-05-05 18:33 | 39.90096 | 4.22668 | 934 ft | 137 kts | 193° |
| 2026-05-05 18:34 | 39.89142 | 4.22459 | 755 ft | 141 kts | 192° |
| 2026-05-05 18:34 | 39.88170 | 4.22256 | 535 ft | 141 kts | 192° |
| 2026-05-05 18:34 | 39.87226 | 4.22065 | 344 ft | 134 kts | 191° |
| 2026-05-05 18:34 | 39.86351 | 4.21885 | 296 ft | 116 kts | 189° |
| 2026-05-05 18:35 | 39.85722 | 4.21757 | 295 ft | 49 kts | 187° |
| 2026-05-05 18:35 | 39.85501 | 4.21801 | 295 ft | 16 kts | 161° |
| 2026-05-05 18:35 | 39.85404 | 4.21868 | 290 ft | 16 kts | 116° |
| 2026-05-05 18:35 | 39.85475 | 4.21943 | 293 ft | 15 kts | 8° |
| 2026-05-05 18:36 | 39.85575 | 4.21963 | 294 ft | 14 kts | 9° |
| 2026-05-05 18:36 | 39.85670 | 4.21983 | 294 ft | 13 kts | 9° |
| 2026-05-05 18:36 | 39.85760 | 4.22001 | 293 ft | 13 kts | 9° |
| 2026-05-05 18:36 | 39.85848 | 4.22019 | 294 ft | 13 kts | 9° |
| 2026-05-05 18:37 | 39.85934 | 4.22036 | 296 ft | 12 kts | 9° |
| 2026-05-05 18:37 | 39.86017 | 4.22053 | 296 ft | 12 kts | 9° |
| 2026-05-05 18:37 | 39.86099 | 4.22071 | 296 ft | 12 kts | 9° |
| 2026-05-05 18:37 | 39.86175 | 4.22097 | 299 ft | 11 kts | 38° |
| 2026-05-05 18:38 | 39.86184 | 4.22193 | 297 ft | 11 kts | 99° |
| 2026-05-05 18:38 | 39.86220 | 4.22265 | 299 ft | 11 kts | 12° |
| 2026-05-05 18:38 | 39.86265 | 4.22330 | 301 ft | 11 kts | 75° |